createdAt,value
2022-11-20T00:01:49.639Z,89.43
2022-11-20T00:05:13.037Z,89.35
2022-11-20T00:08:35.390Z,88.84
2022-11-20T00:11:57.154Z,89.13
2022-11-20T00:15:19.284Z,89.18
2022-11-20T00:18:40.869Z,88.96
2022-11-20T00:22:03.976Z,89.72
2022-11-20T00:25:25.455Z,89.76
2022-11-20T00:28:53.620Z,89.87
2022-11-20T00:32:15.549Z,90.17
2022-11-20T00:35:37.722Z,90.27
2022-11-20T00:39:02.032Z,90.39
2022-11-20T00:42:24.120Z,90.47
2022-11-20T00:45:46.226Z,90.84
2022-11-20T00:49:08.327Z,90.63
2022-11-20T00:52:30.011Z,90.61
2022-11-20T00:55:57.655Z,90.64
2022-11-20T00:59:20.074Z,90.90
2022-11-20T01:02:42.352Z,90.80
2022-11-20T01:06:05.241Z,90.89
2022-11-20T01:09:26.976Z,90.82
2022-11-20T01:13:10.566Z,91.34
2022-11-20T01:16:34.154Z,91.25
2022-11-20T01:19:55.925Z,91.14
2022-11-20T01:23:18.024Z,91.51
2022-11-20T01:26:41.939Z,91.23
2022-11-20T01:30:06.053Z,91.64
2022-11-20T01:33:28.365Z,91.38
2022-11-20T01:36:51.110Z,91.13
2022-11-20T01:40:14.112Z,91.56
2022-11-20T01:43:36.009Z,91.09
2022-11-20T01:47:01.540Z,91.26
2022-11-20T01:50:26.830Z,91.20
2022-11-20T01:53:49.299Z,91.34
2022-11-20T01:57:14.337Z,91.46
2022-11-20T02:00:36.385Z,91.65
2022-11-20T02:04:01.324Z,91.08
2022-11-20T02:07:25.348Z,90.75
2022-11-20T02:10:47.455Z,90.79
2022-11-20T02:14:10.125Z,90.49
2022-11-20T02:17:32.120Z,90.81
2022-11-20T02:21:04.351Z,90.78
2022-11-20T02:24:27.645Z,89.96
2022-11-20T02:27:50.251Z,90.09
2022-11-20T02:31:12.287Z,89.43
2022-11-20T02:34:34.482Z,89.67
2022-11-20T02:37:58.977Z,89.55
2022-11-20T02:41:22.246Z,90.14
2022-11-20T02:44:44.488Z,89.84
2022-11-20T02:48:08.546Z,89.57
2022-11-20T02:51:30.855Z,89.70
2022-11-20T02:54:52.863Z,89.90
2022-11-20T02:58:16.296Z,89.72
2022-11-20T03:01:38.320Z,89.54
2022-11-20T03:05:02.626Z,89.71
2022-11-20T03:08:24.403Z,89.42
2022-11-20T03:11:46.529Z,90.11
2022-11-20T03:15:11.616Z,89.57
2022-11-20T03:18:33.665Z,89.77
2022-11-20T03:21:55.130Z,90.11
2022-11-20T03:25:17.510Z,90.30
2022-11-20T03:28:39.488Z,90.01
2022-11-20T03:32:02.597Z,90.46
2022-11-20T03:35:24.393Z,90.83
2022-11-20T03:38:46.928Z,90.89
2022-11-20T03:42:28.953Z,90.28
2022-11-20T03:45:50.972Z,90.88
2022-11-20T03:49:13.876Z,90.95
2022-11-20T03:52:35.686Z,90.26
2022-11-20T03:55:57.681Z,90.57
2022-11-20T03:59:19.753Z,90.25
2022-11-20T04:02:41.723Z,90.97
2022-11-20T04:06:07.184Z,90.54
2022-11-20T04:09:29.186Z,90.53
2022-11-20T04:12:50.883Z,90.87
2022-11-20T04:16:12.815Z,90.77
2022-11-20T04:19:34.349Z,90.99
2022-11-20T04:22:57.968Z,91.04
2022-11-20T04:26:19.803Z,90.95
2022-11-20T04:29:41.415Z,90.69
2022-11-20T04:33:03.302Z,91.32
2022-11-20T04:36:27.111Z,90.56
2022-11-20T04:39:50.657Z,90.49
2022-11-20T04:43:12.568Z,90.47
2022-11-20T04:46:37.171Z,91.10
2022-11-20T04:49:59.257Z,90.46
2022-11-20T04:53:21.791Z,90.40
2022-11-20T04:56:44.915Z,90.87
2022-11-20T05:00:08.149Z,90.09
2022-11-20T05:03:29.852Z,90.74
2022-11-20T05:06:52.247Z,90.50
2022-11-20T05:10:14.150Z,90.77
2022-11-20T05:13:37.895Z,90.57
2022-11-20T05:16:59.555Z,90.40
2022-11-20T05:20:21.928Z,90.27
2022-11-20T05:23:44.109Z,90.37
2022-11-20T05:27:05.851Z,90.26
2022-11-20T05:30:29.370Z,90.65
2022-11-20T05:33:50.930Z,90.73
2022-11-20T05:37:12.553Z,90.67
2022-11-20T05:40:34.718Z,90.77
2022-11-20T05:43:58.946Z,90.47
2022-11-20T05:47:22.706Z,90.68
2022-11-20T05:50:44.432Z,91.17
2022-11-20T05:54:06.591Z,90.77
2022-11-20T05:57:28.656Z,90.93
2022-11-20T06:00:50.713Z,91.04
2022-11-20T06:04:14.090Z,91.49
2022-11-20T06:07:36.062Z,91.08
2022-11-20T06:10:58.105Z,90.78
2022-11-20T06:14:20.065Z,90.76
2022-11-20T06:17:41.666Z,91.14
2022-11-20T06:21:07.265Z,91.00
2022-11-20T06:24:28.676Z,90.96
2022-11-20T06:27:50.684Z,91.02
2022-11-20T06:31:14.550Z,91.18
2022-11-20T06:34:36.189Z,90.87
2022-11-20T06:37:59.565Z,90.72
2022-11-20T06:41:23.242Z,90.91
2022-11-20T06:44:44.798Z,90.92
2022-11-20T06:48:06.741Z,90.57
2022-11-20T06:51:28.558Z,91.02
2022-11-20T06:54:51.969Z,90.56
2022-11-20T06:58:13.732Z,90.88
2022-11-20T07:01:36.458Z,91.13
2022-11-20T07:04:58.179Z,91.14
2022-11-20T07:08:20.274Z,90.56
2022-11-20T07:11:43.728Z,90.74
2022-11-20T07:15:06.663Z,90.24
2022-11-20T07:18:28.564Z,90.38
2022-11-20T07:21:50.754Z,90.63
2022-11-20T07:25:12.973Z,90.47
2022-11-20T07:28:36.762Z,89.91
2022-11-20T07:31:58.752Z,90.37
2022-11-20T07:35:21.253Z,89.35
2022-11-20T07:38:43.099Z,89.52
2022-11-20T07:42:05.247Z,89.89
2022-11-20T07:45:28.420Z,89.46
2022-11-20T07:48:50.242Z,89.29
2022-11-20T07:52:12.548Z,89.43
2022-11-20T07:55:35.550Z,88.76
2022-11-20T07:58:57.067Z,88.53
2022-11-20T08:02:20.351Z,88.11
2022-11-20T08:05:42.478Z,87.96
2022-11-20T08:09:04.445Z,88.08
2022-11-20T08:12:44.123Z,87.84
2022-11-20T08:16:06.863Z,87.70
2022-11-20T08:19:30.690Z,87.98
2022-11-20T08:22:54.319Z,87.81
2022-11-20T08:26:16.354Z,87.59
2022-11-20T08:29:38.343Z,87.07
2022-11-20T08:33:04.461Z,87.29
2022-11-20T08:36:30.440Z,87.49
2022-11-20T08:39:53.794Z,86.90
2022-11-20T08:43:15.394Z,86.45
2022-11-20T08:46:39.225Z,85.98
2022-11-20T08:50:01.027Z,85.75
2022-11-20T08:53:24.333Z,85.14
2022-11-20T08:56:46.178Z,84.05
2022-11-20T09:00:10.338Z,84.52
2022-11-20T09:03:35.052Z,84.44
2022-11-20T09:06:56.927Z,83.47
2022-11-20T09:10:24.604Z,84.05
2022-11-20T09:13:46.880Z,84.28
2022-11-20T09:17:09.024Z,84.49
2022-11-20T09:20:32.185Z,83.46
2022-11-20T09:23:54.132Z,83.93
2022-11-20T09:27:21.738Z,83.41
2022-11-20T09:30:43.952Z,84.05
2022-11-20T09:34:06.085Z,83.27
2022-11-20T09:37:28.066Z,83.20
2022-11-20T09:40:59.510Z,83.60
2022-11-20T09:44:39.024Z,82.97
2022-11-20T09:48:24.002Z,82.35
2022-11-20T09:51:56.015Z,82.91
2022-11-20T09:55:19.170Z,82.83
2022-11-20T09:58:44.213Z,82.29
2022-11-20T10:02:22.215Z,82.81
2022-11-20T10:05:47.720Z,80.76
2022-11-20T10:09:23.967Z,81.70
2022-11-20T10:13:03.989Z,80.56
2022-11-20T10:16:39.479Z,80.44
2022-11-20T10:20:18.446Z,79.90
2022-11-20T10:24:14.135Z,79.77
2022-11-20T10:27:51.112Z,79.05
2022-11-20T10:31:28.871Z,77.60
2022-11-20T10:34:55.453Z,77.75
2022-11-20T10:38:24.649Z,77.31
2022-11-20T10:41:51.681Z,77.63
2022-11-20T10:45:24.059Z,77.64
2022-11-20T10:48:47.772Z,77.09
2022-11-20T10:52:18.728Z,75.54
2022-11-20T10:55:47.624Z,75.43
2022-11-20T10:59:37.577Z,72.66
2022-11-20T11:03:03.505Z,74.00
2022-11-20T11:06:37.620Z,72.91
2022-11-20T11:09:59.929Z,73.90
2022-11-20T11:13:25.354Z,73.32
2022-11-20T11:16:53.145Z,72.90
2022-11-20T11:20:19.417Z,72.77
2022-11-20T11:23:43.067Z,73.46
2022-11-20T11:27:10.131Z,73.06
2022-11-20T11:30:50.318Z,73.82
2022-11-20T11:34:16.168Z,74.31
2022-11-20T11:37:40.234Z,74.50
2022-11-20T11:41:03.003Z,74.30
2022-11-20T11:44:48.246Z,73.97
2022-11-20T11:48:11.854Z,73.72
2022-11-20T11:51:40.178Z,73.37
2022-11-20T11:55:11.474Z,72.07
2022-11-20T11:58:46.378Z,72.68
2022-11-20T12:02:26.393Z,72.42
2022-11-20T12:05:53.467Z,72.09
2022-11-20T12:09:15.438Z,72.30
2022-11-20T12:12:42.564Z,72.36
2022-11-20T12:16:06.232Z,72.17
2022-11-20T12:19:31.521Z,72.63
2022-11-20T12:23:01.952Z,72.98
2022-11-20T12:26:41.877Z,73.08
2022-11-20T12:30:10.617Z,73.38
2022-11-20T12:33:57.865Z,73.65
2022-11-20T12:37:32.452Z,74.46
2022-11-20T12:41:03.339Z,74.03
2022-11-20T12:44:59.232Z,73.60
2022-11-20T12:48:46.484Z,73.66
2022-11-20T12:52:23.402Z,73.97
2022-11-20T12:55:52.397Z,74.30
2022-11-20T12:59:40.984Z,75.20
2022-11-20T13:03:26.671Z,75.23
2022-11-20T13:06:49.171Z,74.97
2022-11-20T13:10:19.941Z,75.68
2022-11-20T13:13:55.955Z,75.64
2022-11-20T13:17:26.048Z,76.25
2022-11-20T13:20:49.301Z,76.77
2022-11-20T13:24:25.462Z,76.87
2022-11-20T13:27:50.267Z,76.80
2022-11-20T13:31:30.962Z,77.48
2022-11-20T13:34:59.038Z,77.03
2022-11-20T13:38:20.803Z,77.88
2022-11-20T13:41:43.792Z,78.51
2022-11-20T13:45:13.049Z,78.14
2022-11-20T13:48:40.627Z,78.89
2022-11-20T13:52:31.365Z,78.66
2022-11-20T13:56:00.587Z,78.58
2022-11-20T13:59:44.105Z,79.16
2022-11-20T14:03:15.870Z,79.27
2022-11-20T14:06:43.755Z,79.40
2022-11-20T14:10:08.168Z,80.14
2022-11-20T14:13:30.054Z,80.39
2022-11-20T14:16:52.915Z,80.70
2022-11-20T14:20:19.921Z,80.77
2022-11-20T14:23:41.904Z,80.88
2022-11-20T14:27:06.018Z,81.12
2022-11-20T14:30:30.593Z,81.51
2022-11-20T14:33:53.295Z,82.21
2022-11-20T14:37:21.690Z,82.17
2022-11-20T14:40:44.458Z,82.33
2022-11-20T14:44:11.483Z,81.94
2022-11-20T14:47:34.459Z,82.80
2022-11-20T14:50:56.436Z,82.87
2022-11-20T14:54:20.867Z,83.44
2022-11-20T14:57:43.232Z,83.76
2022-11-20T15:01:08.833Z,83.97
2022-11-20T15:04:30.923Z,83.65
2022-11-20T15:07:55.090Z,84.11
2022-11-20T15:11:20.651Z,83.98
2022-11-20T15:14:42.618Z,84.28
2022-11-20T15:18:06.533Z,85.00
2022-11-20T15:21:28.502Z,85.08
2022-11-20T15:24:50.588Z,85.19
2022-11-20T15:28:20.198Z,85.00
2022-11-20T15:31:44.444Z,85.76
2022-11-20T15:35:11.560Z,85.18
2022-11-20T15:38:34.048Z,85.62
2022-11-20T15:41:58.305Z,85.25
2022-11-20T15:45:20.376Z,85.64
2022-11-20T15:48:48.861Z,86.39
2022-11-20T15:52:13.154Z,85.96
2022-11-20T15:55:35.374Z,86.12
2022-11-20T15:58:57.417Z,85.44
2022-11-20T16:02:19.709Z,85.95
2022-11-20T16:05:41.688Z,86.16
2022-11-20T16:09:05.248Z,85.67
2022-11-20T16:12:44.985Z,86.13
2022-11-20T16:16:11.178Z,86.19
2022-11-20T16:19:33.011Z,86.32
2022-11-20T16:22:54.630Z,86.87
2022-11-20T16:26:19.988Z,86.63
2022-11-20T16:29:42.142Z,85.94
2022-11-20T16:33:05.343Z,86.25
2022-11-20T16:36:28.521Z,86.63
2022-11-20T16:39:50.483Z,86.63
2022-11-20T16:43:16.189Z,86.50
2022-11-20T16:46:40.932Z,86.21
2022-11-20T16:50:03.177Z,85.98
2022-11-20T16:53:25.319Z,86.33
2022-11-20T16:56:48.128Z,86.25
2022-11-20T17:00:12.764Z,85.86
2022-11-20T17:03:34.607Z,86.54
2022-11-20T17:06:56.770Z,86.32
2022-11-20T17:10:18.886Z,86.21
2022-11-20T17:13:41.418Z,86.79
2022-11-20T17:17:05.077Z,86.39
2022-11-20T17:20:26.886Z,86.23
2022-11-20T17:23:49.302Z,86.49
2022-11-20T17:27:11.109Z,86.71
2022-11-20T17:30:33.075Z,86.45
2022-11-20T17:33:56.606Z,87.00
2022-11-20T17:37:18.713Z,87.08
2022-11-20T17:40:40.564Z,86.97
2022-11-20T17:44:03.527Z,86.81
2022-11-20T17:47:26.029Z,86.91
2022-11-20T17:50:49.583Z,87.33
2022-11-20T17:54:12.442Z,86.96
2022-11-20T17:57:52.146Z,87.11
2022-11-20T18:01:14.599Z,86.90
2022-11-20T18:04:36.290Z,86.63
2022-11-20T18:07:59.964Z,86.74
2022-11-20T18:11:24.173Z,86.49
2022-11-20T18:14:45.780Z,86.23
2022-11-20T18:18:07.990Z,86.32
2022-11-20T18:21:31.696Z,86.23
2022-11-20T18:24:55.366Z,86.33
2022-11-20T18:28:19.939Z,86.35
2022-11-20T18:31:42.923Z,86.47
2022-11-20T18:35:05.939Z,86.97
2022-11-20T18:38:27.755Z,87.11
2022-11-20T18:42:08.427Z,87.10
2022-11-20T18:45:30.542Z,86.69
2022-11-20T18:48:53.207Z,86.67
2022-11-20T18:52:15.265Z,86.41
2022-11-20T18:55:37.544Z,86.50
2022-11-20T18:59:01.935Z,86.47
2022-11-20T19:02:24.319Z,86.69
2022-11-20T19:05:46.104Z,86.54
2022-11-20T19:09:10.236Z,86.53
2022-11-20T19:12:32.064Z,86.83
2022-11-20T19:15:55.412Z,86.89
2022-11-20T19:19:17.633Z,87.18
2022-11-20T19:22:39.618Z,87.28
2022-11-20T19:26:01.675Z,86.95
2022-11-20T19:29:25.813Z,87.04
2022-11-20T19:32:50.267Z,87.34
2022-11-20T19:36:14.038Z,86.76
2022-11-20T19:39:36.478Z,87.05
2022-11-20T19:42:58.326Z,87.41
2022-11-20T19:46:21.143Z,87.19
2022-11-20T19:49:44.739Z,87.15
2022-11-20T19:53:07.601Z,87.43
2022-11-20T19:56:31.086Z,87.13
2022-11-20T19:59:53.519Z,87.44
2022-11-20T20:03:15.842Z,86.92
2022-11-20T20:06:40.381Z,87.70
2022-11-20T20:10:02.231Z,87.26
2022-11-20T20:13:24.953Z,87.11
2022-11-20T20:16:47.025Z,87.08
2022-11-20T20:20:10.142Z,86.54
2022-11-20T20:23:33.777Z,86.50
2022-11-20T20:26:58.289Z,86.46
2022-11-20T20:30:21.140Z,86.98
2022-11-20T20:33:46.680Z,86.24
2022-11-20T20:37:08.959Z,85.50
2022-11-20T20:40:32.527Z,86.07
2022-11-20T20:44:12.614Z,85.56
2022-11-20T20:47:35.862Z,86.09
2022-11-20T20:50:58.969Z,86.18
2022-11-20T20:54:21.370Z,85.60
2022-11-20T20:57:44.864Z,85.64
2022-11-20T21:01:08.384Z,85.62
2022-11-20T21:04:30.331Z,85.64
2022-11-20T21:08:10.119Z,85.35
2022-11-20T21:11:32.197Z,85.17
2022-11-20T21:14:55.565Z,85.17
2022-11-20T21:18:18.587Z,85.18
2022-11-20T21:22:00.685Z,84.94
2022-11-20T21:25:22.796Z,84.82
2022-11-20T21:28:45.102Z,84.94
2022-11-20T21:32:08.314Z,85.05
2022-11-20T21:35:30.186Z,84.62
2022-11-20T21:38:53.370Z,84.32
2022-11-20T21:42:17.653Z,84.72
2022-11-20T21:45:39.630Z,84.21
2022-11-20T21:49:06.541Z,84.65
2022-11-20T21:52:28.596Z,84.34
2022-11-20T21:55:55.173Z,84.22
2022-11-20T21:59:16.649Z,84.21
2022-11-20T22:02:39.964Z,83.93
2022-11-20T22:06:03.407Z,84.32
2022-11-20T22:09:25.356Z,84.24
2022-11-20T22:12:47.459Z,84.48
2022-11-20T22:16:08.491Z,83.49
2022-11-20T22:19:30.407Z,84.26
2022-11-20T22:22:53.389Z,84.01
2022-11-20T22:26:16.899Z,83.57
2022-11-20T22:29:39.067Z,83.96
2022-11-20T22:33:05.774Z,83.81
2022-11-20T22:36:31.193Z,83.07
2022-11-20T22:39:54.445Z,83.27
2022-11-20T22:43:16.562Z,83.44
2022-11-20T22:46:39.302Z,83.06
2022-11-20T22:50:03.402Z,83.56
2022-11-20T22:53:25.036Z,83.46
2022-11-20T22:56:49.209Z,83.50
2022-11-20T23:00:12.278Z,83.71
2022-11-20T23:03:34.463Z,83.25
2022-11-20T23:06:56.272Z,82.90
2022-11-20T23:10:18.270Z,82.78
2022-11-20T23:13:42.332Z,82.18
2022-11-20T23:17:04.164Z,82.44
2022-11-20T23:20:26.300Z,82.98
2022-11-20T23:23:50.387Z,83.15
2022-11-20T23:27:12.249Z,82.91
2022-11-20T23:30:36.337Z,82.75
2022-11-20T23:33:58.563Z,82.69
2022-11-20T23:37:20.363Z,82.95
2022-11-20T23:40:42.620Z,83.24
2022-11-20T23:44:04.707Z,82.91
2022-11-20T23:47:28.334Z,82.75
2022-11-20T23:50:50.417Z,82.99
2022-11-20T23:54:12.589Z,83.06
2022-11-20T23:57:34.737Z,83.14
